sensor_id;sensor_type;location;lat;lon;timestamp;P1;durP1;ratioP1;P2;durP2;ratioP2
17618;SDS011;8928;51.678;6.074;2023-06-22T00:02:13;17.33;;;9.95;;
17618;SDS011;8928;51.678;6.074;2023-06-22T00:05:00;15.43;;;9.23;;
17618;SDS011;8928;51.678;6.074;2023-06-22T00:07:47;14.27;;;9.80;;
17618;SDS011;8928;51.678;6.074;2023-06-22T00:10:34;14.52;;;8.80;;
17618;SDS011;8928;51.678;6.074;2023-06-22T00:13:22;16.08;;;9.43;;
17618;SDS011;8928;51.678;6.074;2023-06-22T00:16:09;16.30;;;9.48;;
17618;SDS011;8928;51.678;6.074;2023-06-22T00:18:56;13.80;;;9.30;;
17618;SDS011;8928;51.678;6.074;2023-06-22T00:21:45;15.98;;;9.90;;
17618;SDS011;8928;51.678;6.074;2023-06-22T00:24:38;13.35;;;9.13;;
17618;SDS011;8928;51.678;6.074;2023-06-22T00:27:25;15.52;;;8.95;;
17618;SDS011;8928;51.678;6.074;2023-06-22T00:30:13;16.90;;;9.35;;
17618;SDS011;8928;51.678;6.074;2023-06-22T00:33:01;15.50;;;9.65;;
17618;SDS011;8928;51.678;6.074;2023-06-22T00:35:48;14.32;;;9.60;;
17618;SDS011;8928;51.678;6.074;2023-06-22T00:38:38;16.63;;;9.68;;
17618;SDS011;8928;51.678;6.074;2023-06-22T00:41:25;16.05;;;9.43;;
17618;SDS011;8928;51.678;6.074;2023-06-22T00:44:13;14.25;;;9.10;;
17618;SDS011;8928;51.678;6.074;2023-06-22T00:47:02;17.33;;;10.20;;
17618;SDS011;8928;51.678;6.074;2023-06-22T00:49:49;17.65;;;9.40;;
17618;SDS011;8928;51.678;6.074;2023-06-22T00:52:37;15.57;;;9.82;;
17618;SDS011;8928;51.678;6.074;2023-06-22T00:55:29;16.15;;;10.27;;
17618;SDS011;8928;51.678;6.074;2023-06-22T00:58:16;15.85;;;10.07;;
17618;SDS011;8928;51.678;6.074;2023-06-22T01:01:07;15.73;;;10.10;;
17618;SDS011;8928;51.678;6.074;2023-06-22T01:03:55;16.63;;;10.60;;
17618;SDS011;8928;51.678;6.074;2023-06-22T01:06:44;16.85;;;10.68;;
17618;SDS011;8928;51.678;6.074;2023-06-22T01:09:41;15.88;;;10.45;;
17618;SDS011;8928;51.678;6.074;2023-06-22T01:12:38;16.73;;;10.70;;
17618;SDS011;8928;51.678;6.074;2023-06-22T01:15:30;16.45;;;10.10;;
17618;SDS011;8928;51.678;6.074;2023-06-22T01:18:21;19.45;;;10.68;;
17618;SDS011;8928;51.678;6.074;2023-06-22T01:21:13;18.92;;;10.88;;
17618;SDS011;8928;51.678;6.074;2023-06-22T01:24:08;18.42;;;10.45;;
17618;SDS011;8928;51.678;6.074;2023-06-22T01:27:05;22.17;;;10.90;;
17618;SDS011;8928;51.678;6.074;2023-06-22T01:30:14;17.67;;;10.60;;
17618;SDS011;8928;51.678;6.074;2023-06-22T01:33:03;15.55;;;10.40;;
17618;SDS011;8928;51.678;6.074;2023-06-22T01:35:52;16.42;;;10.52;;
17618;SDS011;8928;51.678;6.074;2023-06-22T01:38:39;15.02;;;10.35;;
17618;SDS011;8928;51.678;6.074;2023-06-22T01:41:37;14.65;;;10.15;;
17618;SDS011;8928;51.678;6.074;2023-06-22T01:44:25;14.93;;;10.23;;
17618;SDS011;8928;51.678;6.074;2023-06-22T01:47:14;15.00;;;10.27;;
17618;SDS011;8928;51.678;6.074;2023-06-22T01:50:03;16.92;;;10.90;;
17618;SDS011;8928;51.678;6.074;2023-06-22T01:52:51;16.35;;;11.05;;
17618;SDS011;8928;51.678;6.074;2023-06-22T01:55:38;17.42;;;10.88;;
17618;SDS011;8928;51.678;6.074;2023-06-22T01:58:25;18.03;;;11.10;;
17618;SDS011;8928;51.678;6.074;2023-06-22T02:01:14;16.43;;;11.20;;
17618;SDS011;8928;51.678;6.074;2023-06-22T02:04:09;16.77;;;10.70;;
17618;SDS011;8928;51.678;6.074;2023-06-22T02:06:59;17.57;;;11.23;;
17618;SDS011;8928;51.678;6.074;2023-06-22T02:09:50;16.37;;;11.73;;
17618;SDS011;8928;51.678;6.074;2023-06-22T02:12:39;20.93;;;11.53;;
17618;SDS011;8928;51.678;6.074;2023-06-22T02:15:28;18.77;;;11.37;;
17618;SDS011;8928;51.678;6.074;2023-06-22T02:18:15;17.17;;;11.23;;
17618;SDS011;8928;51.678;6.074;2023-06-22T02:21:04;18.03;;;11.43;;
17618;SDS011;8928;51.678;6.074;2023-06-22T02:23:51;14.93;;;9.97;;
17618;SDS011;8928;51.678;6.074;2023-06-22T02:26:38;16.47;;;10.87;;
17618;SDS011;8928;51.678;6.074;2023-06-22T02:29:27;17.37;;;11.33;;
17618;SDS011;8928;51.678;6.074;2023-06-22T02:32:15;18.83;;;11.23;;
17618;SDS011;8928;51.678;6.074;2023-06-22T02:35:03;17.00;;;11.13;;
17618;SDS011;8928;51.678;6.074;2023-06-22T02:37:53;19.63;;;11.30;;
17618;SDS011;8928;51.678;6.074;2023-06-22T02:40:40;18.13;;;11.57;;
17618;SDS011;8928;51.678;6.074;2023-06-22T02:43:27;17.87;;;11.83;;
17618;SDS011;8928;51.678;6.074;2023-06-22T02:46:14;17.70;;;11.93;;
17618;SDS011;8928;51.678;6.074;2023-06-22T02:49:01;18.60;;;11.37;;
17618;SDS011;8928;51.678;6.074;2023-06-22T02:51:48;18.30;;;11.60;;
17618;SDS011;8928;51.678;6.074;2023-06-22T02:54:37;16.63;;;12.10;;
17618;SDS011;8928;51.678;6.074;2023-06-22T02:57:24;19.83;;;11.90;;
17618;SDS011;8928;51.678;6.074;2023-06-22T03:00:12;18.00;;;11.30;;
17618;SDS011;8928;51.678;6.074;2023-06-22T03:03:03;19.87;;;11.10;;
17618;SDS011;8928;51.678;6.074;2023-06-22T03:05:50;17.90;;;11.50;;
17618;SDS011;8928;51.678;6.074;2023-06-22T03:08:38;17.83;;;11.27;;
17618;SDS011;8928;51.678;6.074;2023-06-22T03:11:28;17.20;;;11.00;;
17618;SDS011;8928;51.678;6.074;2023-06-22T03:14:15;15.43;;;10.50;;
17618;SDS011;8928;51.678;6.074;2023-06-22T03:17:02;17.97;;;10.93;;
17618;SDS011;8928;51.678;6.074;2023-06-22T03:19:50;16.87;;;10.17;;
17618;SDS011;8928;51.678;6.074;2023-06-22T03:22:37;14.97;;;10.20;;
17618;SDS011;8928;51.678;6.074;2023-06-22T03:25:25;16.57;;;10.10;;
17618;SDS011;8928;51.678;6.074;2023-06-22T03:28:13;19.60;;;10.73;;
17618;SDS011;8928;51.678;6.074;2023-06-22T03:31:00;16.33;;;10.57;;
17618;SDS011;8928;51.678;6.074;2023-06-22T03:33:47;18.13;;;11.30;;
17618;SDS011;8928;51.678;6.074;2023-06-22T03:36:34;16.33;;;11.37;;
17618;SDS011;8928;51.678;6.074;2023-06-22T03:39:21;21.23;;;12.00;;
17618;SDS011;8928;51.678;6.074;2023-06-22T03:42:08;20.30;;;11.60;;
17618;SDS011;8928;51.678;6.074;2023-06-22T03:44:57;17.17;;;11.50;;
17618;SDS011;8928;51.678;6.074;2023-06-22T03:47:44;18.43;;;11.90;;
17618;SDS011;8928;51.678;6.074;2023-06-22T03:50:31;18.47;;;10.70;;
17618;SDS011;8928;51.678;6.074;2023-06-22T03:53:18;16.33;;;11.73;;
17618;SDS011;8928;51.678;6.074;2023-06-22T03:56:05;18.77;;;11.87;;
17618;SDS011;8928;51.678;6.074;2023-06-22T03:58:52;20.40;;;12.07;;
17618;SDS011;8928;51.678;6.074;2023-06-22T04:01:40;19.83;;;11.80;;
17618;SDS011;8928;51.678;6.074;2023-06-22T04:04:28;21.10;;;12.67;;
17618;SDS011;8928;51.678;6.074;2023-06-22T04:07:15;22.00;;;11.97;;
17618;SDS011;8928;51.678;6.074;2023-06-22T04:10:03;21.83;;;13.33;;
17618;SDS011;8928;51.678;6.074;2023-06-22T04:12:50;22.53;;;13.17;;
17618;SDS011;8928;51.678;6.074;2023-06-22T04:15:37;19.23;;;13.00;;
17618;SDS011;8928;51.678;6.074;2023-06-22T04:18:26;20.67;;;13.20;;
17618;SDS011;8928;51.678;6.074;2023-06-22T04:21:13;20.23;;;13.00;;
17618;SDS011;8928;51.678;6.074;2023-06-22T04:24:00;23.47;;;13.93;;
17618;SDS011;8928;51.678;6.074;2023-06-22T04:26:47;23.93;;;14.23;;
17618;SDS011;8928;51.678;6.074;2023-06-22T04:29:34;22.30;;;14.30;;
17618;SDS011;8928;51.678;6.074;2023-06-22T04:32:21;24.45;;;15.38;;
17618;SDS011;8928;51.678;6.074;2023-06-22T04:35:10;23.90;;;15.65;;
17618;SDS011;8928;51.678;6.074;2023-06-22T04:37:57;23.55;;;14.98;;
17618;SDS011;8928;51.678;6.074;2023-06-22T04:40:45;28.65;;;15.80;;
17618;SDS011;8928;51.678;6.074;2023-06-22T04:43:33;24.58;;;15.75;;
17618;SDS011;8928;51.678;6.074;2023-06-22T04:46:20;23.98;;;16.42;;
17618;SDS011;8928;51.678;6.074;2023-06-22T04:49:07;24.60;;;16.40;;
17618;SDS011;8928;51.678;6.074;2023-06-22T04:51:57;26.15;;;17.02;;
17618;SDS011;8928;51.678;6.074;2023-06-22T04:54:44;24.10;;;16.27;;
17618;SDS011;8928;51.678;6.074;2023-06-22T04:57:34;24.05;;;16.10;;
17618;SDS011;8928;51.678;6.074;2023-06-22T05:00:24;28.77;;;16.58;;
17618;SDS011;8928;51.678;6.074;2023-06-22T05:03:12;23.67;;;16.95;;
17618;SDS011;8928;51.678;6.074;2023-06-22T05:05:59;28.50;;;17.20;;
17618;SDS011;8928;51.678;6.074;2023-06-22T05:08:47;28.10;;;17.35;;
17618;SDS011;8928;51.678;6.074;2023-06-22T05:11:34;26.02;;;17.50;;
17618;SDS011;8928;51.678;6.074;2023-06-22T05:14:21;27.38;;;17.58;;
17618;SDS011;8928;51.678;6.074;2023-06-22T05:17:08;28.48;;;18.17;;
17618;SDS011;8928;51.678;6.074;2023-06-22T05:19:58;24.45;;;17.45;;
17618;SDS011;8928;51.678;6.074;2023-06-22T05:22:45;30.00;;;17.73;;
17618;SDS011;8928;51.678;6.074;2023-06-22T05:25:34;27.00;;;18.33;;
17618;SDS011;8928;51.678;6.074;2023-06-22T05:28:21;32.17;;;18.17;;
17618;SDS011;8928;51.678;6.074;2023-06-22T05:31:09;26.13;;;18.50;;
17618;SDS011;8928;51.678;6.074;2023-06-22T05:33:56;26.23;;;18.33;;
17618;SDS011;8928;51.678;6.074;2023-06-22T05:36:45;28.20;;;18.42;;
17618;SDS011;8928;51.678;6.074;2023-06-22T05:39:32;29.08;;;18.70;;
17618;SDS011;8928;51.678;6.074;2023-06-22T05:42:21;27.65;;;18.73;;
17618;SDS011;8928;51.678;6.074;2023-06-22T05:45:08;25.50;;;18.02;;
17618;SDS011;8928;51.678;6.074;2023-06-22T05:47:55;26.20;;;18.25;;
17618;SDS011;8928;51.678;6.074;2023-06-22T05:50:43;25.58;;;17.90;;
17618;SDS011;8928;51.678;6.074;2023-06-22T05:53:30;25.52;;;17.27;;
17618;SDS011;8928;51.678;6.074;2023-06-22T05:56:17;28.45;;;17.63;;
17618;SDS011;8928;51.678;6.074;2023-06-22T05:59:05;26.30;;;17.63;;
17618;SDS011;8928;51.678;6.074;2023-06-22T06:01:52;26.23;;;17.83;;
17618;SDS011;8928;51.678;6.074;2023-06-22T06:04:39;24.35;;;17.10;;
17618;SDS011;8928;51.678;6.074;2023-06-22T06:07:26;23.77;;;17.05;;
17618;SDS011;8928;51.678;6.074;2023-06-22T06:10:14;47.53;;;18.90;;
17618;SDS011;8928;51.678;6.074;2023-06-22T06:13:01;32.53;;;17.77;;
17618;SDS011;8928;51.678;6.074;2023-06-22T06:15:51;34.80;;;17.50;;
17618;SDS011;8928;51.678;6.074;2023-06-22T06:18:40;27.80;;;16.95;;
17618;SDS011;8928;51.678;6.074;2023-06-22T06:21:27;41.35;;;18.35;;
17618;SDS011;8928;51.678;6.074;2023-06-22T06:24:14;27.27;;;17.08;;
17618;SDS011;8928;51.678;6.074;2023-06-22T06:27:01;36.40;;;16.85;;
17618;SDS011;8928;51.678;6.074;2023-06-22T06:29:50;33.15;;;17.23;;
17618;SDS011;8928;51.678;6.074;2023-06-22T06:32:38;26.13;;;16.65;;
17618;SDS011;8928;51.678;6.074;2023-06-22T06:35:26;27.25;;;16.77;;
17618;SDS011;8928;51.678;6.074;2023-06-22T06:38:14;20.95;;;16.08;;
17618;SDS011;8928;51.678;6.074;2023-06-22T06:41:01;26.30;;;16.45;;
17618;SDS011;8928;51.678;6.074;2023-06-22T06:43:48;20.83;;;15.95;;
17618;SDS011;8928;51.678;6.074;2023-06-22T06:46:35;19.63;;;14.48;;
17618;SDS011;8928;51.678;6.074;2023-06-22T06:49:24;22.42;;;15.55;;
17618;SDS011;8928;51.678;6.074;2023-06-22T06:52:11;24.63;;;17.25;;
17618;SDS011;8928;51.678;6.074;2023-06-22T06:54:58;23.88;;;16.15;;
17618;SDS011;8928;51.678;6.074;2023-06-22T06:57:46;24.13;;;16.85;;
17618;SDS011;8928;51.678;6.074;2023-06-22T07:00:33;25.42;;;16.83;;
17618;SDS011;8928;51.678;6.074;2023-06-22T07:03:21;26.65;;;16.52;;
17618;SDS011;8928;51.678;6.074;2023-06-22T07:06:09;25.17;;;16.70;;
17618;SDS011;8928;51.678;6.074;2023-06-22T07:08:57;19.90;;;15.98;;
17618;SDS011;8928;51.678;6.074;2023-06-22T07:11:44;24.17;;;17.50;;
17618;SDS011;8928;51.678;6.074;2023-06-22T07:14:31;22.75;;;16.70;;
17618;SDS011;8928;51.678;6.074;2023-06-22T07:17:18;21.45;;;16.67;;
17618;SDS011;8928;51.678;6.074;2023-06-22T07:20:05;23.83;;;17.17;;
17618;SDS011;8928;51.678;6.074;2023-06-22T07:22:56;23.50;;;16.75;;
17618;SDS011;8928;51.678;6.074;2023-06-22T07:25:44;23.35;;;16.60;;
17618;SDS011;8928;51.678;6.074;2023-06-22T07:28:31;25.65;;;17.52;;
17618;SDS011;8928;51.678;6.074;2023-06-22T07:34:10;24.27;;;17.02;;
17618;SDS011;8928;51.678;6.074;2023-06-22T07:36:57;24.02;;;17.73;;
17618;SDS011;8928;51.678;6.074;2023-06-22T07:39:45;23.13;;;17.10;;
17618;SDS011;8928;51.678;6.074;2023-06-22T07:42:32;25.58;;;17.65;;
17618;SDS011;8928;51.678;6.074;2023-06-22T07:45:19;24.50;;;18.17;;
17618;SDS011;8928;51.678;6.074;2023-06-22T07:48:06;28.10;;;17.23;;
17618;SDS011;8928;51.678;6.074;2023-06-22T07:50:53;26.38;;;17.45;;
17618;SDS011;8928;51.678;6.074;2023-06-22T07:53:41;25.42;;;17.88;;
17618;SDS011;8928;51.678;6.074;2023-06-22T07:56:30;22.10;;;17.88;;
17618;SDS011;8928;51.678;6.074;2023-06-22T07:59:18;23.10;;;17.77;;
17618;SDS011;8928;51.678;6.074;2023-06-22T08:02:05;23.50;;;17.55;;
17618;SDS011;8928;51.678;6.074;2023-06-22T08:04:54;22.98;;;17.45;;
17618;SDS011;8928;51.678;6.074;2023-06-22T08:07:41;22.55;;;16.58;;
17618;SDS011;8928;51.678;6.074;2023-06-22T08:10:29;26.48;;;16.67;;
17618;SDS011;8928;51.678;6.074;2023-06-22T08:13:17;23.42;;;16.40;;
17618;SDS011;8928;51.678;6.074;2023-06-22T08:16:04;22.48;;;17.63;;
17618;SDS011;8928;51.678;6.074;2023-06-22T08:18:52;21.23;;;16.95;;
17618;SDS011;8928;51.678;6.074;2023-06-22T08:21:40;22.77;;;17.08;;
17618;SDS011;8928;51.678;6.074;2023-06-22T08:24:27;22.58;;;16.00;;
17618;SDS011;8928;51.678;6.074;2023-06-22T08:27:16;20.27;;;16.42;;
17618;SDS011;8928;51.678;6.074;2023-06-22T08:30:09;22.73;;;16.50;;
17618;SDS011;8928;51.678;6.074;2023-06-22T08:32:57;21.73;;;16.02;;
17618;SDS011;8928;51.678;6.074;2023-06-22T08:35:44;19.52;;;15.48;;
17618;SDS011;8928;51.678;6.074;2023-06-22T08:38:31;20.65;;;16.17;;
17618;SDS011;8928;51.678;6.074;2023-06-22T08:41:18;22.00;;;16.33;;
17618;SDS011;8928;51.678;6.074;2023-06-22T08:44:05;20.85;;;15.75;;
17618;SDS011;8928;51.678;6.074;2023-06-22T08:46:53;22.13;;;16.30;;
17618;SDS011;8928;51.678;6.074;2023-06-22T08:49:41;21.00;;;15.85;;
17618;SDS011;8928;51.678;6.074;2023-06-22T08:52:28;18.17;;;15.52;;
17618;SDS011;8928;51.678;6.074;2023-06-22T08:55:15;18.80;;;16.02;;
17618;SDS011;8928;51.678;6.074;2023-06-22T08:58:02;22.33;;;15.35;;
17618;SDS011;8928;51.678;6.074;2023-06-22T09:00:50;19.05;;;15.13;;
17618;SDS011;8928;51.678;6.074;2023-06-22T09:03:39;19.25;;;15.70;;
17618;SDS011;8928;51.678;6.074;2023-06-22T09:06:26;22.55;;;15.60;;
17618;SDS011;8928;51.678;6.074;2023-06-22T09:09:13;19.38;;;15.13;;
17618;SDS011;8928;51.678;6.074;2023-06-22T09:12:00;21.45;;;15.40;;
17618;SDS011;8928;51.678;6.074;2023-06-22T09:14:47;21.30;;;14.88;;
17618;SDS011;8928;51.678;6.074;2023-06-22T09:17:34;22.20;;;15.65;;
17618;SDS011;8928;51.678;6.074;2023-06-22T09:20:23;22.27;;;14.23;;
17618;SDS011;8928;51.678;6.074;2023-06-22T09:23:11;20.77;;;15.45;;
17618;SDS011;8928;51.678;6.074;2023-06-22T09:25:58;21.88;;;16.00;;
17618;SDS011;8928;51.678;6.074;2023-06-22T09:28:45;23.10;;;15.25;;
17618;SDS011;8928;51.678;6.074;2023-06-22T09:31:32;18.30;;;14.65;;
17618;SDS011;8928;51.678;6.074;2023-06-22T09:34:19;29.25;;;16.17;;
17618;SDS011;8928;51.678;6.074;2023-06-22T09:37:08;20.20;;;14.90;;
17618;SDS011;8928;51.678;6.074;2023-06-22T09:39:55;19.38;;;15.68;;
17618;SDS011;8928;51.678;6.074;2023-06-22T09:42:42;17.95;;;15.25;;
17618;SDS011;8928;51.678;6.074;2023-06-22T09:45:29;24.52;;;15.77;;
17618;SDS011;8928;51.678;6.074;2023-06-22T09:48:16;21.10;;;15.27;;
17618;SDS011;8928;51.678;6.074;2023-06-22T09:51:03;20.20;;;15.35;;
17618;SDS011;8928;51.678;6.074;2023-06-22T09:53:52;22.77;;;15.35;;
17618;SDS011;8928;51.678;6.074;2023-06-22T09:56:40;24.73;;;15.43;;
17618;SDS011;8928;51.678;6.074;2023-06-22T09:59:27;25.20;;;15.93;;
17618;SDS011;8928;51.678;6.074;2023-06-22T10:02:14;21.05;;;15.60;;
17618;SDS011;8928;51.678;6.074;2023-06-22T10:05:01;22.80;;;15.85;;
17618;SDS011;8928;51.678;6.074;2023-06-22T10:07:48;21.13;;;15.35;;
17618;SDS011;8928;51.678;6.074;2023-06-22T10:10:37;22.58;;;15.85;;
17618;SDS011;8928;51.678;6.074;2023-06-22T10:13:24;22.63;;;15.40;;
17618;SDS011;8928;51.678;6.074;2023-06-22T10:16:11;24.00;;;15.73;;
17618;SDS011;8928;51.678;6.074;2023-06-22T10:18:58;22.70;;;15.70;;
17618;SDS011;8928;51.678;6.074;2023-06-22T10:21:45;25.38;;;16.13;;
17618;SDS011;8928;51.678;6.074;2023-06-22T10:24:32;22.00;;;15.45;;
17618;SDS011;8928;51.678;6.074;2023-06-22T10:27:20;22.92;;;15.10;;
17618;SDS011;8928;51.678;6.074;2023-06-22T10:30:08;19.60;;;14.75;;
17618;SDS011;8928;51.678;6.074;2023-06-22T10:32:58;21.25;;;15.45;;
17618;SDS011;8928;51.678;6.074;2023-06-22T10:35:45;19.90;;;14.32;;
17618;SDS011;8928;51.678;6.074;2023-06-22T10:38:32;19.65;;;14.80;;
17618;SDS011;8928;51.678;6.074;2023-06-22T10:41:19;24.40;;;14.75;;
17618;SDS011;8928;51.678;6.074;2023-06-22T10:44:07;19.63;;;14.32;;
17618;SDS011;8928;51.678;6.074;2023-06-22T10:46:54;17.92;;;14.40;;
17618;SDS011;8928;51.678;6.074;2023-06-22T10:49:41;21.67;;;14.60;;
17618;SDS011;8928;51.678;6.074;2023-06-22T10:52:28;22.42;;;14.57;;
17618;SDS011;8928;51.678;6.074;2023-06-22T10:55:15;19.88;;;14.68;;
17618;SDS011;8928;51.678;6.074;2023-06-22T10:58:02;21.05;;;14.70;;
17618;SDS011;8928;51.678;6.074;2023-06-22T11:00:51;27.67;;;16.35;;
17618;SDS011;8928;51.678;6.074;2023-06-22T11:03:38;21.23;;;15.90;;
17618;SDS011;8928;51.678;6.074;2023-06-22T11:06:25;26.08;;;16.95;;
17618;SDS011;8928;51.678;6.074;2023-06-22T11:09:12;30.08;;;17.63;;
17618;SDS011;8928;51.678;6.074;2023-06-22T11:12:04;24.13;;;18.00;;
17618;SDS011;8928;51.678;6.074;2023-06-22T11:14:52;24.23;;;17.38;;
17618;SDS011;8928;51.678;6.074;2023-06-22T11:17:40;27.15;;;19.15;;
17618;SDS011;8928;51.678;6.074;2023-06-22T11:20:27;29.73;;;20.63;;
17618;SDS011;8928;51.678;6.074;2023-06-22T11:23:14;30.35;;;21.77;;
17618;SDS011;8928;51.678;6.074;2023-06-22T11:26:01;34.03;;;21.40;;
17618;SDS011;8928;51.678;6.074;2023-06-22T11:28:48;33.88;;;22.48;;
17618;SDS011;8928;51.678;6.074;2023-06-22T11:31:35;40.08;;;23.65;;
17618;SDS011;8928;51.678;6.074;2023-06-22T11:34:24;39.10;;;24.38;;
17618;SDS011;8928;51.678;6.074;2023-06-22T11:37:11;40.83;;;25.13;;
17618;SDS011;8928;51.678;6.074;2023-06-22T11:39:58;36.95;;;24.35;;
17618;SDS011;8928;51.678;6.074;2023-06-22T11:42:45;34.72;;;24.38;;
17618;SDS011;8928;51.678;6.074;2023-06-22T11:45:33;36.08;;;25.17;;
17618;SDS011;8928;51.678;6.074;2023-06-22T11:48:20;43.28;;;27.50;;
17618;SDS011;8928;51.678;6.074;2023-06-22T11:51:08;49.10;;;28.98;;
17618;SDS011;8928;51.678;6.074;2023-06-22T11:53:55;49.70;;;30.38;;
17618;SDS011;8928;51.678;6.074;2023-06-22T11:56:42;48.67;;;30.25;;
17618;SDS011;8928;51.678;6.074;2023-06-22T11:59:29;49.13;;;29.92;;
17618;SDS011;8928;51.678;6.074;2023-06-22T12:02:16;47.38;;;30.00;;
17618;SDS011;8928;51.678;6.074;2023-06-22T12:05:04;54.65;;;30.77;;
17618;SDS011;8928;51.678;6.074;2023-06-22T12:07:54;47.03;;;30.65;;
17618;SDS011;8928;51.678;6.074;2023-06-22T12:10:41;43.97;;;28.65;;
17618;SDS011;8928;51.678;6.074;2023-06-22T12:13:28;44.00;;;28.13;;
17618;SDS011;8928;51.678;6.074;2023-06-22T12:16:16;43.60;;;29.17;;
17618;SDS011;8928;51.678;6.074;2023-06-22T12:19:03;43.97;;;29.45;;
17618;SDS011;8928;51.678;6.074;2023-06-22T12:21:50;42.75;;;28.48;;
17618;SDS011;8928;51.678;6.074;2023-06-22T12:24:38;44.03;;;28.45;;
17618;SDS011;8928;51.678;6.074;2023-06-22T12:27:25;44.78;;;28.30;;
17618;SDS011;8928;51.678;6.074;2023-06-22T12:30:12;43.85;;;28.88;;
17618;SDS011;8928;51.678;6.074;2023-06-22T12:32:59;40.30;;;28.88;;
17618;SDS011;8928;51.678;6.074;2023-06-22T12:35:46;45.50;;;29.33;;
17618;SDS011;8928;51.678;6.074;2023-06-22T12:38:34;43.72;;;30.42;;
17618;SDS011;8928;51.678;6.074;2023-06-22T12:41:23;42.97;;;30.35;;
17618;SDS011;8928;51.678;6.074;2023-06-22T12:44:10;51.15;;;31.27;;
17618;SDS011;8928;51.678;6.074;2023-06-22T12:46:57;43.72;;;29.40;;
17618;SDS011;8928;51.678;6.074;2023-06-22T12:49:44;42.30;;;28.20;;
17618;SDS011;8928;51.678;6.074;2023-06-22T12:52:31;41.35;;;27.58;;
17618;SDS011;8928;51.678;6.074;2023-06-22T12:55:18;34.13;;;25.13;;
17618;SDS011;8928;51.678;6.074;2023-06-22T12:58:07;30.75;;;23.15;;
17618;SDS011;8928;51.678;6.074;2023-06-22T13:00:54;33.55;;;23.73;;
17618;SDS011;8928;51.678;6.074;2023-06-22T13:03:41;37.38;;;24.58;;
17618;SDS011;8928;51.678;6.074;2023-06-22T13:06:28;31.50;;;23.58;;
17618;SDS011;8928;51.678;6.074;2023-06-22T13:09:17;28.70;;;22.67;;
17618;SDS011;8928;51.678;6.074;2023-06-22T13:12:05;33.53;;;23.70;;
17618;SDS011;8928;51.678;6.074;2023-06-22T13:14:54;29.95;;;22.98;;
17618;SDS011;8928;51.678;6.074;2023-06-22T13:17:41;30.88;;;22.90;;
17618;SDS011;8928;51.678;6.074;2023-06-22T13:20:28;29.83;;;22.23;;
17618;SDS011;8928;51.678;6.074;2023-06-22T13:23:16;29.13;;;22.10;;
17618;SDS011;8928;51.678;6.074;2023-06-22T13:26:03;30.05;;;22.63;;
17618;SDS011;8928;51.678;6.074;2023-06-22T13:28:50;29.45;;;22.25;;
17618;SDS011;8928;51.678;6.074;2023-06-22T13:31:38;30.75;;;21.90;;
17618;SDS011;8928;51.678;6.074;2023-06-22T13:34:25;32.85;;;22.20;;
17618;SDS011;8928;51.678;6.074;2023-06-22T13:37:12;29.55;;;21.75;;
17618;SDS011;8928;51.678;6.074;2023-06-22T13:39:59;28.27;;;22.20;;
17618;SDS011;8928;51.678;6.074;2023-06-22T13:42:48;29.73;;;21.85;;
17618;SDS011;8928;51.678;6.074;2023-06-22T13:45:35;32.40;;;21.60;;
17618;SDS011;8928;51.678;6.074;2023-06-22T13:48:24;27.15;;;20.92;;
17618;SDS011;8928;51.678;6.074;2023-06-22T13:51:13;26.30;;;21.27;;
17618;SDS011;8928;51.678;6.074;2023-06-22T13:54:00;28.48;;;21.35;;
17618;SDS011;8928;51.678;6.074;2023-06-22T13:56:47;30.58;;;21.33;;
17618;SDS011;8928;51.678;6.074;2023-06-22T13:59:34;27.25;;;21.80;;
17618;SDS011;8928;51.678;6.074;2023-06-22T14:02:21;30.65;;;21.75;;
17618;SDS011;8928;51.678;6.074;2023-06-22T14:05:10;28.50;;;22.20;;
17618;SDS011;8928;51.678;6.074;2023-06-22T14:07:57;31.38;;;22.33;;
17618;SDS011;8928;51.678;6.074;2023-06-22T14:10:44;29.45;;;22.42;;
17618;SDS011;8928;51.678;6.074;2023-06-22T14:13:31;31.63;;;23.15;;
17618;SDS011;8928;51.678;6.074;2023-06-22T14:16:18;33.45;;;23.58;;
17618;SDS011;8928;51.678;6.074;2023-06-22T14:19:05;31.65;;;23.00;;
17618;SDS011;8928;51.678;6.074;2023-06-22T14:21:54;33.33;;;24.50;;
17618;SDS011;8928;51.678;6.074;2023-06-22T14:24:42;33.83;;;24.75;;
17618;SDS011;8928;51.678;6.074;2023-06-22T14:27:29;35.30;;;26.00;;
17618;SDS011;8928;51.678;6.074;2023-06-22T14:30:16;35.78;;;26.73;;
17618;SDS011;8928;51.678;6.074;2023-06-22T14:33:03;35.58;;;26.95;;
17618;SDS011;8928;51.678;6.074;2023-06-22T14:35:50;42.20;;;29.13;;
17618;SDS011;8928;51.678;6.074;2023-06-22T14:38:38;38.42;;;28.63;;
17618;SDS011;8928;51.678;6.074;2023-06-22T14:41:26;42.25;;;30.52;;
17618;SDS011;8928;51.678;6.074;2023-06-22T14:44:13;39.40;;;29.70;;
17618;SDS011;8928;51.678;6.074;2023-06-22T14:47:00;39.03;;;29.15;;
17618;SDS011;8928;51.678;6.074;2023-06-22T14:49:47;44.10;;;30.67;;
17618;SDS011;8928;51.678;6.074;2023-06-22T14:52:34;43.40;;;29.92;;
17618;SDS011;8928;51.678;6.074;2023-06-22T14:55:23;40.17;;;30.25;;
17618;SDS011;8928;51.678;6.074;2023-06-22T14:58:10;47.72;;;31.58;;
17618;SDS011;8928;51.678;6.074;2023-06-22T15:00:57;48.15;;;33.30;;
17618;SDS011;8928;51.678;6.074;2023-06-22T15:03:44;46.58;;;32.58;;
17618;SDS011;8928;51.678;6.074;2023-06-22T15:06:31;47.28;;;32.70;;
17618;SDS011;8928;51.678;6.074;2023-06-22T15:09:18;47.83;;;33.80;;
17618;SDS011;8928;51.678;6.074;2023-06-22T15:12:07;53.83;;;35.00;;
17618;SDS011;8928;51.678;6.074;2023-06-22T15:14:56;55.75;;;35.50;;
17618;SDS011;8928;51.678;6.074;2023-06-22T15:17:43;53.13;;;36.83;;
17618;SDS011;8928;51.678;6.074;2023-06-22T15:20:30;57.25;;;38.22;;
17618;SDS011;8928;51.678;6.074;2023-06-22T15:23:17;54.72;;;38.42;;
17618;SDS011;8928;51.678;6.074;2023-06-22T15:26:05;56.20;;;38.20;;
17618;SDS011;8928;51.678;6.074;2023-06-22T15:28:54;62.05;;;40.65;;
17618;SDS011;8928;51.678;6.074;2023-06-22T15:31:41;62.35;;;41.13;;
17618;SDS011;8928;51.678;6.074;2023-06-22T15:34:28;60.00;;;39.72;;
17618;SDS011;8928;51.678;6.074;2023-06-22T15:37:15;63.10;;;40.05;;
17618;SDS011;8928;51.678;6.074;2023-06-22T15:40:04;66.75;;;41.08;;
17618;SDS011;8928;51.678;6.074;2023-06-22T15:42:52;63.08;;;39.75;;
17618;SDS011;8928;51.678;6.074;2023-06-22T15:45:40;61.80;;;39.83;;
17618;SDS011;8928;51.678;6.074;2023-06-22T15:48:27;63.38;;;39.15;;
17618;SDS011;8928;51.678;6.074;2023-06-22T15:51:14;64.03;;;38.00;;
17618;SDS011;8928;51.678;6.074;2023-06-22T15:54:01;60.83;;;36.85;;
17618;SDS011;8928;51.678;6.074;2023-06-22T15:56:49;54.35;;;34.92;;
17618;SDS011;8928;51.678;6.074;2023-06-22T15:59:36;54.85;;;34.13;;
17618;SDS011;8928;51.678;6.074;2023-06-22T16:02:24;47.95;;;30.58;;
17618;SDS011;8928;51.678;6.074;2023-06-22T16:05:12;47.38;;;30.27;;
17618;SDS011;8928;51.678;6.074;2023-06-22T16:08:00;50.47;;;31.05;;
17618;SDS011;8928;51.678;6.074;2023-06-22T16:10:47;53.65;;;31.65;;
17618;SDS011;8928;51.678;6.074;2023-06-22T16:13:34;55.17;;;31.42;;
17618;SDS011;8928;51.678;6.074;2023-06-22T16:16:21;51.80;;;31.88;;
17618;SDS011;8928;51.678;6.074;2023-06-22T16:19:09;56.05;;;33.47;;
17618;SDS011;8928;51.678;6.074;2023-06-22T16:21:57;55.30;;;34.60;;
17618;SDS011;8928;51.678;6.074;2023-06-22T16:24:44;63.20;;;35.58;;
17618;SDS011;8928;51.678;6.074;2023-06-22T16:27:31;63.35;;;37.10;;
17618;SDS011;8928;51.678;6.074;2023-06-22T16:30:18;66.40;;;38.40;;
17618;SDS011;8928;51.678;6.074;2023-06-22T16:33:05;66.43;;;38.47;;
17618;SDS011;8928;51.678;6.074;2023-06-22T16:35:54;68.32;;;38.83;;
17618;SDS011;8928;51.678;6.074;2023-06-22T16:38:41;69.70;;;39.75;;
17618;SDS011;8928;51.678;6.074;2023-06-22T16:41:28;69.07;;;41.33;;